Time;durP1;ratioP1;P1;durP2;ratioP2;P2;SDS_P1;SDS_P2;PMS_P1;PMS_P2;Temp;Humidity;BMP_temperature;BMP_pressure;BME280_temperature;BME280_humidity;BME280_pressure;Samples;Min_cycle;Max_cycle;Signal;HPM_P1;HPM_P2
2022/05/13 00:02:12;;;;;;;18.40;7.03;;;;;;;;;;5036259;28;20052;-62
2022/05/13 00:04:39;;;;;;;20.25;8.35;;;;;;;;;;5036648;28;20412;-66
2022/05/13 00:07:06;;;;;;;17.58;7.97;;;;;;;;;;5050233;28;20045;-64
2022/05/13 00:12:17;;;;;;;16.20;9.20;;;;;;;;;;5033242;28;20501;-64
2022/05/13 00:14:45;;;;;;;18.60;9.93;;;;;;;;;;5048271;28;20057;-63
2022/05/13 00:17:12;;;;;;;17.75;9.90;;;;;;;;;;5046307;28;20037;-61
2022/05/13 00:19:39;;;;;;;19.38;10.13;;;;;;;;;;5052355;28;20048;-63
2022/05/13 00:22:05;;;;;;;17.52;10.77;;;;;;;;;;5048799;28;20056;-62
2022/05/13 00:24:31;;;;;;;19.02;10.95;;;;;;;;;;5041744;28;20657;-62
2022/05/13 00:26:57;;;;;;;17.98;10.32;;;;;;;;;;5053788;28;20041;-64
2022/05/13 00:29:23;;;;;;;18.63;10.93;;;;;;;;;;5050015;28;20052;-63
2022/05/13 00:31:49;;;;;;;21.30;11.73;;;;;;;;;;5027461;28;20059;-62
2022/05/13 00:34:15;;;;;;;20.48;10.68;;;;;;;;;;5044268;28;20049;-64
2022/05/13 00:36:41;;;;;;;21.02;10.00;;;;;;;;;;5047406;28;20123;-65
2022/05/13 00:39:07;;;;;;;21.30;10.57;;;;;;;;;;5039678;28;20051;-62
2022/05/13 00:41:34;;;;;;;21.85;10.75;;;;;;;;;;5032361;28;20049;-63
2022/05/13 00:44:00;;;;;;;20.83;11.18;;;;;;;;;;5045037;28;20044;-65
2022/05/13 00:46:28;;;;;;;20.05;11.07;;;;;;;;;;5048558;28;21571;-63
2022/05/13 00:48:55;;;;;;;24.15;11.27;;;;;;;;;;5047900;28;20041;-63
2022/05/13 00:51:29;;;;;;;19.98;11.10;;;;;;;;;;5044839;28;20050;-64
2022/05/13 00:53:55;;;;;;;18.27;11.07;;;;;;;;;;5040236;28;20057;-63
2022/05/13 00:56:22;;;;;;;19.83;11.15;;;;;;;;;;5043283;28;20400;-63
2022/05/13 00:58:53;;;;;;;17.90;11.05;;;;;;;;;;5060644;28;20512;-63
2022/05/13 01:01:19;;;;;;;18.92;10.98;;;;;;;;;;5035032;28;20130;-66
2022/05/13 01:03:48;;;;;;;25.50;11.40;;;;;;;;;;5040304;28;20373;-62
2022/05/13 01:06:20;;;;;;;21.42;11.18;;;;;;;;;;5044864;28;20041;-63
2022/05/13 01:08:47;;;;;;;22.45;11.23;;;;;;;;;;5049348;28;20045;-62
2022/05/13 01:11:16;;;;;;;20.42;11.35;;;;;;;;;;5047767;28;20555;-62
2022/05/13 01:13:45;;;;;;;23.55;11.93;;;;;;;;;;5044789;28;20067;-63
2022/05/13 01:16:12;;;;;;;19.35;11.48;;;;;;;;;;5036957;28;20049;-62
2022/05/13 01:18:40;;;;;;;20.63;11.70;;;;;;;;;;5045688;28;20496;-63
2022/05/13 01:21:08;;;;;;;24.63;12.38;;;;;;;;;;5049283;28;20044;-61
2022/05/13 01:23:40;;;;;;;22.20;12.15;;;;;;;;;;5036699;28;20485;-61
2022/05/13 01:26:11;;;;;;;23.77;12.10;;;;;;;;;;5042283;28;20037;-61
2022/05/13 01:28:50;;;;;;;22.98;12.02;;;;;;;;;;5045128;28;20045;-64
2022/05/13 01:31:31;;;;;;;20.55;10.85;;;;;;;;;;5039238;28;20045;-64
2022/05/13 01:33:59;;;;;;;20.25;11.43;;;;;;;;;;5032700;28;20123;-62
2022/05/13 01:36:26;;;;;;;25.27;12.32;;;;;;;;;;5045748;28;20057;-61
2022/05/13 01:38:53;;;;;;;27.58;12.45;;;;;;;;;;5049408;28;20072;-64
2022/05/13 01:41:19;;;;;;;19.70;11.20;;;;;;;;;;5046929;28;20488;-66
2022/05/13 01:43:47;;;;;;;25.70;11.35;;;;;;;;;;5040819;28;20045;-61
2022/05/13 01:46:14;;;;;;;22.42;11.75;;;;;;;;;;5040646;28;20070;-61
2022/05/13 01:48:40;;;;;;;19.88;11.02;;;;;;;;;;5041389;28;20073;-61
2022/05/13 01:51:07;;;;;;;28.73;11.60;;;;;;;;;;5042679;28;20053;-61
2022/05/13 01:53:33;;;;;;;24.02;11.18;;;;;;;;;;5044078;28;20045;-62
2022/05/13 01:55:59;;;;;;;21.92;10.85;;;;;;;;;;5050403;28;20057;-62
2022/05/13 01:58:25;;;;;;;18.80;10.55;;;;;;;;;;5035123;28;20443;-60
2022/05/13 02:00:55;;;;;;;19.88;9.95;;;;;;;;;;5032758;28;20929;-62
2022/05/13 02:06:07;;;;;;;22.30;10.80;;;;;;;;;;5047311;28;20053;-62
2022/05/13 02:08:34;;;;;;;21.73;10.30;;;;;;;;;;5046948;28;20372;-65
2022/05/13 02:11:01;;;;;;;20.33;10.00;;;;;;;;;;5043566;28;20048;-63
2022/05/13 02:13:28;;;;;;;22.38;10.55;;;;;;;;;;5033858;28;20075;-64
2022/05/13 02:15:53;;;;;;;17.20;10.23;;;;;;;;;;5032198;28;20053;-62
2022/05/13 02:18:20;;;;;;;17.63;10.00;;;;;;;;;;5031979;28;20048;-61
2022/05/13 02:20:47;;;;;;;17.80;10.82;;;;;;;;;;5047593;28;20041;-62
2022/05/13 02:23:14;;;;;;;19.10;10.20;;;;;;;;;;5035627;28;20038;-60
2022/05/13 02:25:39;;;;;;;20.27;9.20;;;;;;;;;;5031006;28;20422;-62
2022/05/13 02:28:06;;;;;;;20.30;10.27;;;;;;;;;;5036235;28;20049;-63
2022/05/13 02:30:32;;;;;;;17.77;10.45;;;;;;;;;;5035089;28;20193;-62
2022/05/13 02:32:58;;;;;;;15.70;9.60;;;;;;;;;;5042990;28;20052;-61
2022/05/13 02:35:25;;;;;;;25.15;10.85;;;;;;;;;;5044358;28;20049;-63
2022/05/13 02:37:52;;;;;;;20.92;9.90;;;;;;;;;;5038903;28;20034;-65
2022/05/13 02:40:19;;;;;;;18.08;9.20;;;;;;;;;;5039398;28;20120;-62
2022/05/13 02:42:45;;;;;;;18.02;8.80;;;;;;;;;;5047707;28;20051;-63
2022/05/13 02:45:11;;;;;;;20.08;9.48;;;;;;;;;;5044989;28;20064;-63
2022/05/13 02:47:37;;;;;;;16.70;9.20;;;;;;;;;;5038658;28;20037;-62
2022/05/13 02:50:21;;;;;;;19.38;8.93;;;;;;;;;;5035949;28;20140;-62
2022/05/13 02:52:48;;;;;;;17.15;7.90;;;;;;;;;;5046254;28;20067;-62
2022/05/13 02:55:14;;;;;;;14.80;7.35;;;;;;;;;;5048983;28;20391;-62
2022/05/13 02:57:40;;;;;;;13.95;7.35;;;;;;;;;;5045395;28;20045;-63
2022/05/13 03:00:08;;;;;;;14.98;7.32;;;;;;;;;;5047731;28;20049;-62
2022/05/13 03:02:34;;;;;;;12.35;7.53;;;;;;;;;;5034024;28;20376;-62
2022/05/13 03:05:00;;;;;;;14.13;7.32;;;;;;;;;;5040084;28;20045;-62
2022/05/13 03:07:26;;;;;;;13.88;7.05;;;;;;;;;;5047305;28;20083;-65
2022/05/13 03:09:51;;;;;;;11.70;7.50;;;;;;;;;;5045787;28;20148;-63
2022/05/13 03:12:17;;;;;;;13.05;7.45;;;;;;;;;;5039437;28;20111;-62
2022/05/13 03:14:43;;;;;;;15.77;7.47;;;;;;;;;;5034967;28;20368;-62
2022/05/13 03:17:09;;;;;;;13.45;7.38;;;;;;;;;;5040649;28;20396;-62
2022/05/13 03:19:36;;;;;;;13.70;7.30;;;;;;;;;;5048342;28;20073;-61
2022/05/13 03:22:06;;;;;;;13.23;6.75;;;;;;;;;;5048970;28;20056;-63
2022/05/13 03:24:33;;;;;;;18.17;7.00;;;;;;;;;;5046721;28;20053;-62
2022/05/13 03:27:00;;;;;;;11.10;6.95;;;;;;;;;;5049073;28;20118;-62
2022/05/13 03:29:27;;;;;;;9.68;6.05;;;;;;;;;;5038102;28;20519;-62
2022/05/13 03:31:54;;;;;;;10.95;6.30;;;;;;;;;;5040842;28;20048;-62
2022/05/13 03:34:21;;;;;;;14.75;6.32;;;;;;;;;;5037637;28;20041;-63
2022/05/13 03:36:51;;;;;;;14.38;5.93;;;;;;;;;;5045703;28;20047;-63
2022/05/13 03:39:17;;;;;;;14.77;5.82;;;;;;;;;;5043012;28;20072;-63
2022/05/13 03:41:43;;;;;;;13.70;6.10;;;;;;;;;;5047265;28;20059;-63
2022/05/13 03:44:09;;;;;;;15.68;6.55;;;;;;;;;;5037057;28;20057;-62
2022/05/13 03:46:35;;;;;;;13.43;6.07;;;;;;;;;;5042443;28;20041;-63
2022/05/13 03:49:02;;;;;;;10.63;6.22;;;;;;;;;;5044960;28;20135;-63
2022/05/13 03:51:29;;;;;;;13.10;6.35;;;;;;;;;;5054812;28;20074;-61
2022/05/13 03:53:54;;;;;;;12.48;6.40;;;;;;;;;;5044959;28;20061;-63
2022/05/13 03:56:20;;;;;;;11.75;6.82;;;;;;;;;;5050499;28;20100;-63
2022/05/13 03:58:46;;;;;;;16.45;7.13;;;;;;;;;;5044006;28;20055;-65
2022/05/13 04:01:12;;;;;;;16.45;8.05;;;;;;;;;;5043499;28;20032;-62
2022/05/13 04:03:38;;;;;;;12.50;7.28;;;;;;;;;;5050583;28;20131;-62
2022/05/13 04:08:58;;;;;;;17.33;8.15;;;;;;;;;;5055463;28;20155;-65
2022/05/13 04:11:30;;;;;;;19.20;7.40;;;;;;;;;;5050068;28;20538;-62
2022/05/13 04:16:41;;;;;;;12.90;7.10;;;;;;;;;;5039219;28;20512;-61
2022/05/13 04:19:06;;;;;;;22.02;8.63;;;;;;;;;;5041228;28;20642;-64
2022/05/13 04:21:36;;;;;;;19.92;9.70;;;;;;;;;;5049964;28;20041;-62
2022/05/13 04:24:05;;;;;;;18.45;10.10;;;;;;;;;;5045280;28;20044;-62
2022/05/13 04:26:32;;;;;;;17.02;9.10;;;;;;;;;;5038570;28;20555;-62
2022/05/13 04:28:59;;;;;;;24.20;9.80;;;;;;;;;;5043371;28;20044;-64
2022/05/13 04:31:28;;;;;;;17.95;9.60;;;;;;;;;;5045990;28;20416;-63
2022/05/13 04:33:55;;;;;;;17.80;10.10;;;;;;;;;;5042644;28;20144;-63
2022/05/13 04:36:23;;;;;;;19.13;9.75;;;;;;;;;;5053417;28;20100;-63
2022/05/13 04:38:50;;;;;;;21.50;10.60;;;;;;;;;;5041539;28;20822;-64
2022/05/13 04:44:03;;;;;;;19.42;10.70;;;;;;;;;;5045906;28;20099;-63
2022/05/13 04:46:30;;;;;;;22.05;10.77;;;;;;;;;;5029456;28;20140;-61
2022/05/13 04:48:56;;;;;;;27.13;10.88;;;;;;;;;;5032635;28;20135;-63
2022/05/13 04:51:22;;;;;;;18.15;9.05;;;;;;;;;;5036331;28;20057;-63
2022/05/13 04:53:50;;;;;;;17.33;9.00;;;;;;;;;;5037217;28;20084;-62
2022/05/13 04:56:17;;;;;;;22.30;9.57;;;;;;;;;;5046875;28;20065;-62
2022/05/13 04:58:43;;;;;;;19.88;8.75;;;;;;;;;;5043310;28;20087;-65
2022/05/13 05:01:10;;;;;;;17.25;8.02;;;;;;;;;;5037723;28;20041;-65
2022/05/13 05:03:37;;;;;;;18.10;8.13;;;;;;;;;;5037274;28;20048;-64
2022/05/13 05:06:04;;;;;;;21.00;7.68;;;;;;;;;;5040211;28;20082;-63
2022/05/13 05:08:30;;;;;;;18.92;8.18;;;;;;;;;;5039935;28;20041;-67
2022/05/13 05:10:57;;;;;;;15.40;7.35;;;;;;;;;;5042433;28;20083;-64
2022/05/13 05:13:29;;;;;;;19.83;7.72;;;;;;;;;;5036125;28;20047;-65
2022/05/13 05:15:56;;;;;;;24.92;7.25;;;;;;;;;;5037508;28;20162;-65
2022/05/13 05:18:23;;;;;;;13.65;6.82;;;;;;;;;;5040168;28;20053;-64
2022/05/13 05:20:50;;;;;;;15.98;6.57;;;;;;;;;;5046059;28;20893;-63
2022/05/13 05:23:22;;;;;;;16.80;6.07;;;;;;;;;;5043723;28;21274;-63
2022/05/13 05:25:48;;;;;;;11.77;6.00;;;;;;;;;;5042212;28;20464;-63
2022/05/13 05:28:14;;;;;;;17.92;6.30;;;;;;;;;;5042541;28;20514;-62
2022/05/13 05:30:42;;;;;;;16.90;5.85;;;;;;;;;;5039991;28;20053;-62
2022/05/13 05:33:08;;;;;;;13.95;5.95;;;;;;;;;;5039459;28;20049;-61
2022/05/13 05:35:34;;;;;;;15.45;6.38;;;;;;;;;;5039342;28;20049;-61
2022/05/13 05:38:01;;;;;;;18.45;7.20;;;;;;;;;;5042815;28;20094;-63
2022/05/13 05:40:27;;;;;;;12.48;6.80;;;;;;;;;;5043438;28;20379;-62
2022/05/13 05:42:53;;;;;;;12.77;6.90;;;;;;;;;;5041143;28;20080;-59
2022/05/13 05:45:20;;;;;;;13.05;6.75;;;;;;;;;;5040599;28;20483;-63
2022/05/13 05:47:47;;;;;;;16.83;6.70;;;;;;;;;;5040416;28;20044;-61
2022/05/13 05:50:17;;;;;;;15.20;7.03;;;;;;;;;;5042265;28;20065;-63
2022/05/13 05:52:43;;;;;;;18.20;7.47;;;;;;;;;;5036303;28;20142;-62
2022/05/13 05:58:00;;;;;;;14.30;6.70;;;;;;;;;;5041264;28;20057;-60
2022/05/13 06:00:28;;;;;;;16.20;6.82;;;;;;;;;;5041777;28;20412;-63
2022/05/13 06:02:54;;;;;;;24.73;8.27;;;;;;;;;;5039011;28;20049;-62
2022/05/13 06:05:20;;;;;;;17.67;7.28;;;;;;;;;;5041870;28;20060;-63
2022/05/13 06:07:46;;;;;;;16.67;7.20;;;;;;;;;;5053760;28;20060;-63
2022/05/13 06:10:13;;;;;;;19.33;7.05;;;;;;;;;;5036209;28;20428;-64
2022/05/13 06:12:41;;;;;;;13.27;6.75;;;;;;;;;;5037816;28;20072;-60
2022/05/13 06:15:07;;;;;;;14.45;6.63;;;;;;;;;;5040430;28;20107;-62
2022/05/13 06:17:33;;;;;;;13.75;6.18;;;;;;;;;;5041543;28;22944;-60
2022/05/13 06:20:04;;;;;;;16.88;6.88;;;;;;;;;;5041009;28;20106;-64
2022/05/13 06:22:29;;;;;;;16.38;6.50;;;;;;;;;;5043690;28;20045;-60
2022/05/13 06:24:55;;;;;;;14.23;6.22;;;;;;;;;;5037419;28;20048;-60
2022/05/13 06:27:21;;;;;;;14.70;6.30;;;;;;;;;;5056439;28;20049;-61
2022/05/13 06:29:47;;;;;;;12.57;6.72;;;;;;;;;;5042474;28;20072;-59
2022/05/13 06:32:13;;;;;;;10.63;6.88;;;;;;;;;;5041438;28;20049;-62
2022/05/13 06:34:39;;;;;;;18.20;6.80;;;;;;;;;;5043700;28;20053;-66
2022/05/13 06:37:05;;;;;;;21.63;6.45;;;;;;;;;;5037085;28;20045;-61
2022/05/13 06:39:31;;;;;;;14.45;6.13;;;;;;;;;;5041243;28;20073;-64
2022/05/13 06:41:57;;;;;;;19.40;6.50;;;;;;;;;;5044628;28;20087;-62
2022/05/13 06:44:23;;;;;;;19.40;6.72;;;;;;;;;;5038396;28;20036;-60
2022/05/13 06:46:49;;;;;;;18.08;7.07;;;;;;;;;;5042136;28;20126;-66
2022/05/13 06:49:15;;;;;;;18.40;6.78;;;;;;;;;;5041598;28;20106;-62
2022/05/13 06:51:41;;;;;;;22.52;7.32;;;;;;;;;;5045120;28;20439;-63
2022/05/13 06:54:10;;;;;;;14.50;7.70;;;;;;;;;;5040793;28;20096;-62
2022/05/13 06:56:38;;;;;;;23.17;9.20;;;;;;;;;;5043759;28;20127;-63
2022/05/13 06:59:05;;;;;;;21.92;8.80;;;;;;;;;;5041123;28;20045;-66
2022/05/13 07:01:31;;;;;;;13.45;7.95;;;;;;;;;;5038320;28;20103;-62
2022/05/13 07:03:57;;;;;;;21.15;8.02;;;;;;;;;;5040151;28;20057;-63
2022/05/13 07:06:23;;;;;;;21.70;8.02;;;;;;;;;;5042904;28;20416;-62
2022/05/13 07:08:50;;;;;;;16.70;7.85;;;;;;;;;;5039747;28;20140;-63
2022/05/13 07:11:21;;;;;;;17.25;8.57;;;;;;;;;;5033852;28;20091;-63
2022/05/13 07:13:47;;;;;;;17.95;8.43;;;;;;;;;;5044185;28;20045;-66
2022/05/13 07:16:13;;;;;;;18.23;6.95;;;;;;;;;;5044796;28;20051;-66
2022/05/13 07:18:40;;;;;;;16.20;7.43;;;;;;;;;;5039153;28;20712;-64
2022/05/13 07:21:07;;;;;;;19.08;7.68;;;;;;;;;;5034584;28;20080;-62
2022/05/13 07:23:32;;;;;;;17.17;7.85;;;;;;;;;;5038433;28;20052;-63
2022/05/13 07:25:59;;;;;;;23.25;8.05;;;;;;;;;;5043634;28;20061;-64
2022/05/13 07:28:28;;;;;;;15.63;7.47;;;;;;;;;;5034918;28;20049;-64
2022/05/13 07:30:54;;;;;;;25.08;7.90;;;;;;;;;;5044439;28;20084;-62
2022/05/13 07:33:22;;;;;;;26.13;8.73;;;;;;;;;;5038598;28;20044;-66
2022/05/13 07:35:49;;;;;;;16.70;7.80;;;;;;;;;;5039853;28;20480;-65
2022/05/13 07:38:15;;;;;;;14.88;7.63;;;;;;;;;;5040090;28;20060;-63
2022/05/13 07:43:25;;;;;;;26.38;9.98;;;;;;;;;;5040141;28;20052;-66
2022/05/13 07:45:51;;;;;;;19.77;8.35;;;;;;;;;;5041643;28;20056;-63
2022/05/13 07:48:17;;;;;;;19.58;7.75;;;;;;;;;;5036694;28;20470;-64
2022/05/13 07:50:43;;;;;;;24.20;7.88;;;;;;;;;;5045949;28;20053;-63
2022/05/13 07:53:09;;;;;;;23.05;8.38;;;;;;;;;;5042631;28;20062;-68
2022/05/13 07:55:35;;;;;;;24.60;7.78;;;;;;;;;;5041638;28;20139;-62
2022/05/13 07:58:01;;;;;;;18.77;8.10;;;;;;;;;;5040066;28;20518;-65
2022/05/13 08:00:29;;;;;;;22.33;7.57;;;;;;;;;;5038620;28;20046;-67
2022/05/13 08:02:57;;;;;;;19.67;7.15;;;;;;;;;;5042830;28;20127;-64
2022/05/13 08:05:26;;;;;;;16.23;6.65;;;;;;;;;;5040065;28;20052;-64
2022/05/13 08:08:10;;;;;;;18.40;6.57;;;;;;;;;;5046339;28;20045;-63
2022/05/13 08:10:37;;;;;;;22.77;7.20;;;;;;;;;;5037624;28;20052;-62
2022/05/13 08:13:04;;;;;;;26.85;8.18;;;;;;;;;;5040109;28;20041;-63
2022/05/13 08:15:31;;;;;;;18.80;7.47;;;;;;;;;;5035813;28;20272;-64
2022/05/13 08:17:57;;;;;;;16.77;7.50;;;;;;;;;;5042337;28;20057;-64
2022/05/13 08:20:23;;;;;;;19.75;7.45;;;;;;;;;;5036723;28;20170;-61
2022/05/13 08:22:49;;;;;;;15.85;7.80;;;;;;;;;;5037711;28;20118;-63
2022/05/13 08:25:16;;;;;;;22.80;8.38;;;;;;;;;;5044529;28;20045;-62
2022/05/13 08:27:42;;;;;;;18.50;7.88;;;;;;;;;;5042476;28;20269;-62
2022/05/13 08:30:10;;;;;;;15.07;8.25;;;;;;;;;;5051761;28;20427;-62
2022/05/13 08:32:36;;;;;;;18.45;9.48;;;;;;;;;;5033953;28;20037;-63
2022/05/13 08:35:03;;;;;;;12.50;8.18;;;;;;;;;;5043321;28;20048;-64
2022/05/13 08:37:29;;;;;;;25.65;9.50;;;;;;;;;;5053218;28;20056;-63
2022/05/13 08:39:59;;;;;;;14.63;8.00;;;;;;;;;;5041796;28;20045;-64
2022/05/13 08:42:38;;;;;;;18.63;9.25;;;;;;;;;;5053182;28;20444;-63
2022/05/13 08:45:08;;;;;;;14.55;9.27;;;;;;;;;;5053298;28;20048;-63
2022/05/13 08:47:47;;;;;;;17.38;9.05;;;;;;;;;;5048860;28;20083;-63
2022/05/13 08:50:19;;;;;;;15.43;8.52;;;;;;;;;;5053427;28;20053;-66
2022/05/13 08:53:06;;;;;;;24.27;9.20;;;;;;;;;;5050814;28;20044;-65
2022/05/13 08:55:42;;;;;;;18.70;9.23;;;;;;;;;;5030595;28;20056;-62
2022/05/13 08:58:42;;;;;;;16.40;8.55;;;;;;;;;;5029990;28;20124;-61
2022/05/13 09:01:13;;;;;;;14.65;7.30;;;;;;;;;;5039152;28;20040;-62
2022/05/13 09:03:46;;;;;;;18.27;7.47;;;;;;;;;;5029962;28;20042;-63
2022/05/13 09:06:16;;;;;;;14.85;7.63;;;;;;;;;;5033246;28;20050;-62
2022/05/13 09:08:43;;;;;;;18.00;7.88;;;;;;;;;;5036679;28;20091;-64
2022/05/13 09:11:14;;;;;;;15.13;7.18;;;;;;;;;;5049231;28;20413;-63
2022/05/13 09:13:54;;;;;;;20.25;7.15;;;;;;;;;;5045763;28;20044;-67
2022/05/13 09:17:02;;;;;;;27.10;8.43;;;;;;;;;;5048987;28;20057;-67
2022/05/13 09:19:33;;;;;;;19.40;6.72;;;;;;;;;;5037939;28;20053;-62
2022/05/13 09:22:03;;;;;;;20.08;7.53;;;;;;;;;;5047644;28;20068;-62
2022/05/13 09:24:29;;;;;;;16.55;7.25;;;;;;;;;;5046129;28;20037;-63
2022/05/13 09:26:54;;;;;;;18.83;7.43;;;;;;;;;;5046114;28;20049;-66
2022/05/13 09:29:20;;;;;;;14.60;5.95;;;;;;;;;;5051119;28;20045;-64
2022/05/13 09:32:04;;;;;;;15.77;6.18;;;;;;;;;;5049947;28;20053;-64
2022/05/13 09:34:35;;;;;;;15.35;6.90;;;;;;;;;;5043044;28;20074;-63
2022/05/13 09:37:33;;;;;;;16.15;6.38;;;;;;;;;;5046791;28;20049;-66
2022/05/13 09:40:17;;;;;;;22.98;7.38;;;;;;;;;;5048026;28;20059;-62
2022/05/13 09:42:46;;;;;;;13.25;6.43;;;;;;;;;;5033281;28;20045;-63
2022/05/13 09:45:21;;;;;;;15.23;6.75;;;;;;;;;;5031517;28;20049;-64
2022/05/13 09:47:58;;;;;;;15.38;7.28;;;;;;;;;;5037815;28;20051;-64
2022/05/13 09:50:31;;;;;;;19.92;7.53;;;;;;;;;;5044497;28;20445;-62
2022/05/13 09:53:30;;;;;;;20.42;7.70;;;;;;;;;;5038060;28;20049;-64
2022/05/13 09:55:58;;;;;;;16.30;7.53;;;;;;;;;;5034855;28;20037;-63
2022/05/13 09:58:28;;;;;;;16.98;7.25;;;;;;;;;;5048673;28;20052;-63
2022/05/13 10:01:13;;;;;;;19.05;7.13;;;;;;;;;;5045659;28;20052;-64
2022/05/13 10:03:40;;;;;;;26.38;7.95;;;;;;;;;;5036886;28;20136;-62
2022/05/13 10:06:08;;;;;;;18.58;6.95;;;;;;;;;;5048339;28;20098;-63
2022/05/13 10:08:37;;;;;;;15.40;6.55;;;;;;;;;;5029246;28;20041;-62
2022/05/13 10:13:59;;;;;;;14.25;6.85;;;;;;;;;;5041695;28;20049;-61
2022/05/13 10:16:39;;;;;;;18.35;5.88;;;;;;;;;;5044160;28;20531;-64
2022/05/13 10:19:21;;;;;;;12.75;6.03;;;;;;;;;;5029256;28;20041;-64
2022/05/13 10:22:03;;;;;;;26.27;6.30;;;;;;;;;;5031098;28;20519;-66
2022/05/13 10:25:00;;;;;;;20.70;6.57;;;;;;;;;;5042804;28;20419;-64
2022/05/13 10:27:54;;;;;;;17.08;5.97;;;;;;;;;;5030538;28;20158;-64
2022/05/13 10:30:44;;;;;;;17.85;6.45;;;;;;;;;;5040045;28;20048;-64
2022/05/13 10:33:47;;;;;;;27.33;6.95;;;;;;;;;;5039114;28;20057;-62
2022/05/13 10:36:20;;;;;;;18.30;6.72;;;;;;;;;;5028753;28;20413;-63
2022/05/13 10:38:46;;;;;;;;;;;;;;;;;;5029608;28;20111;-63
2022/05/13 10:41:40;;;;;;;17.02;6.47;;;;;;;;;;5029316;28;19924;-66
2022/05/13 10:44:14;;;;;;;17.13;6.63;;;;;;;;;;5042508;28;20130;-65
2022/05/13 10:46:44;;;;;;;;;;;;;;;;;;5042571;28;20069;-63
2022/05/13 10:49:13;;;;;;;18.42;5.75;;;;;;;;;;5047837;28;20208;-64
2022/05/13 10:51:47;;;;;;;18.67;6.25;;;;;;;;;;5032800;28;20076;-66
2022/05/13 10:54:24;;;;;;;14.65;5.88;;;;;;;;;;5038164;28;20053;-63
2022/05/13 10:56:59;;;;;;;25.83;6.05;;;;;;;;;;5046355;28;20127;-64
2022/05/13 10:59:42;;;;;;;18.17;5.97;;;;;;;;;;5046832;28;20500;-63
2022/05/13 11:02:20;;;;;;;15.65;5.43;;;;;;;;;;5050250;28;20132;-64
2022/05/13 11:04:58;;;;;;;13.60;5.75;;;;;;;;;;5051928;28;20045;-63
2022/05/13 11:07:47;;;;;;;14.10;5.88;;;;;;;;;;5045401;28;20478;-62
2022/05/13 11:10:34;;;;;;;13.85;5.50;;;;;;;;;;5044091;28;20404;-64
2022/05/13 11:13:19;;;;;;;21.98;4.88;;;;;;;;;;5027720;28;20061;-65
2022/05/13 11:16:08;;;;;;;16.15;5.20;;;;;;;;;;5042735;28;20393;-64
2022/05/13 11:18:59;;;;;;;16.80;5.07;;;;;;;;;;5035121;28;20036;-65
2022/05/13 11:21:34;;;;;;;16.38;5.32;;;;;;;;;;5048661;28;20529;-62
2022/05/13 11:27:11;;;;;;;23.27;5.03;;;;;;;;;;5031511;28;20353;-62
2022/05/13 11:29:43;;;;;;;;;;;;;;;;;;5040170;28;20419;-62
2022/05/13 11:32:39;;;;;;;16.42;5.05;;;;;;;;;;5031573;28;19921;-62
2022/05/13 11:35:26;;;;;;;14.63;4.63;;;;;;;;;;5035641;28;20447;-61
2022/05/13 11:37:57;;;;;;;12.65;4.35;;;;;;;;;;5031846;28;20045;-61
2022/05/13 11:40:40;;;;;;;11.75;4.93;;;;;;;;;;5032195;28;20033;-68
2022/05/13 11:43:30;;;;;;;17.13;4.88;;;;;;;;;;5044048;28;20048;-62
2022/05/13 11:46:01;;;;;;;13.20;4.55;;;;;;;;;;5046233;28;20099;-63
2022/05/13 11:48:35;;;;;;;14.63;4.45;;;;;;;;;;5041389;28;20041;-63
2022/05/13 11:51:16;;;;;;;8.23;3.78;;;;;;;;;;5043973;28;20294;-62
2022/05/13 11:53:42;;;;;;;8.95;3.63;;;;;;;;;;5038131;28;20060;-66
2022/05/13 11:56:32;;;;;;;7.82;3.45;;;;;;;;;;5038133;28;20051;-66
2022/05/13 11:59:03;;;;;;;9.70;3.28;;;;;;;;;;5043165;28;20057;-62
2022/05/13 12:01:37;;;;;;;7.40;3.53;;;;;;;;;;5050616;28;20518;-63
2022/05/13 12:04:30;;;;;;;9.23;2.97;;;;;;;;;;5046612;28;20124;-64
2022/05/13 12:07:00;;;;;;;11.85;3.60;;;;;;;;;;5036438;28;20076;-65
2022/05/13 12:09:44;;;;;;;10.55;3.40;;;;;;;;;;5050653;28;20048;-63
2022/05/13 12:12:29;;;;;;;9.05;3.28;;;;;;;;;;5044335;28;20040;-64
2022/05/13 12:14:55;;;;;;;7.80;3.08;;;;;;;;;;5050627;28;20075;-64
2022/05/13 12:18:07;;;;;;;12.88;3.55;;;;;;;;;;5045262;28;20049;-64
2022/05/13 12:20:53;;;;;;;14.52;3.80;;;;;;;;;;5032790;28;20117;-62
2022/05/13 12:23:34;;;;;;;9.93;4.45;;;;;;;;;;5041002;28;20134;-62
2022/05/13 12:26:10;;;;;;;14.25;4.07;;;;;;;;;;5035056;28;20149;-64
2022/05/13 12:28:43;;;;;;;9.25;4.07;;;;;;;;;;5029139;28;20129;-62
2022/05/13 12:31:28;;;;;;;8.38;4.25;;;;;;;;;;5026495;28;20051;-63
2022/05/13 12:39:52;;;;;;;10.60;4.57;;;;;;;;;;5041484;28;20057;-61
2022/05/13 12:42:37;;;;;;;11.52;4.15;;;;;;;;;;5033939;28;20067;-64
2022/05/13 12:45:03;;;;;;;10.95;4.00;;;;;;;;;;5032132;28;20546;-62
2022/05/13 12:47:50;;;;;;;13.45;4.28;;;;;;;;;;5030794;28;20053;-67
2022/05/13 12:50:48;;;;;;;8.15;3.83;;;;;;;;;;5039873;28;20118;-66
2022/05/13 12:53:30;;;;;;;9.60;3.90;;;;;;;;;;5037575;28;20056;-63
2022/05/13 12:56:16;;;;;;;6.88;2.85;;;;;;;;;;5039210;28;20053;-62
2022/05/13 12:58:47;;;;;;;7.10;2.70;;;;;;;;;;5031222;28;20151;-65
2022/05/13 13:01:15;;;;;;;9.15;3.63;;;;;;;;;;5045792;28;20204;-68
2022/05/13 13:03:45;;;;;;;11.63;3.03;;;;;;;;;;5035035;28;20081;-68
2022/05/13 13:06:16;;;;;;;7.65;3.08;;;;;;;;;;5043694;28;20048;-68
2022/05/13 13:08:44;;;;;;;14.10;3.45;;;;;;;;;;5039156;28;20049;-65
2022/05/13 13:11:25;;;;;;;10.82;3.33;;;;;;;;;;5039634;28;20045;-65
2022/05/13 13:14:06;;;;;;;13.55;3.47;;;;;;;;;;5040605;28;20061;-66
2022/05/13 13:16:41;;;;;;;10.45;2.95;;;;;;;;;;5040703;28;20051;-63
2022/05/13 13:19:29;;;;;;;11.77;3.00;;;;;;;;;;5041393;28;20071;-65
2022/05/13 13:22:12;;;;;;;10.13;3.13;;;;;;;;;;5038979;28;20068;-64
2022/05/13 13:24:40;;;;;;;10.40;3.08;;;;;;;;;;5042235;28;20080;-66
2022/05/13 13:27:12;;;;;;;12.02;3.40;;;;;;;;;;5036592;28;20099;-65
2022/05/13 13:29:41;;;;;;;12.73;3.38;;;;;;;;;;5042917;28;20077;-67
2022/05/13 13:32:15;;;;;;;7.30;2.97;;;;;;;;;;5034218;28;20044;-66
2022/05/13 13:34:51;;;;;;;12.68;3.78;;;;;;;;;;5028974;28;20037;-65
2022/05/13 13:37:23;;;;;;;12.48;2.80;;;;;;;;;;5028868;28;20044;-68
2022/05/13 13:39:49;;;;;;;10.80;2.70;;;;;;;;;;5029735;28;20277;-71
2022/05/13 13:42:17;;;;;;;20.50;3.08;;;;;;;;;;5045064;28;20048;-64
2022/05/13 13:44:45;;;;;;;8.63;2.60;;;;;;;;;;5043591;28;20053;-67
2022/05/13 13:47:28;;;;;;;12.52;2.80;;;;;;;;;;5046621;28;20045;-66
2022/05/13 13:49:56;;;;;;;14.15;3.03;;;;;;;;;;5042007;28;20055;-65
2022/05/13 13:52:31;;;;;;;10.30;2.70;;;;;;;;;;5036313;28;20052;-67
2022/05/13 13:55:04;;;;;;;9.60;3.20;;;;;;;;;;5041522;28;20054;-66
2022/05/13 13:57:41;;;;;;;10.40;2.88;;;;;;;;;;5044345;28;20037;-68
2022/05/13 14:00:10;;;;;;;11.18;3.22;;;;;;;;;;5041718;28;20052;-65
2022/05/13 14:02:49;;;;;;;11.98;2.80;;;;;;;;;;5027476;28;20049;-72
2022/05/13 14:05:22;;;;;;;12.80;3.28;;;;;;;;;;5045548;28;20063;-62
2022/05/13 14:07:52;;;;;;;15.50;2.97;;;;;;;;;;5044733;28;20056;-68
2022/05/13 14:10:28;;;;;;;13.18;3.35;;;;;;;;;;5033362;28;20650;-71
2022/05/13 14:12:56;;;;;;;11.35;2.95;;;;;;;;;;5038957;28;20057;-67
2022/05/13 14:15:22;;;;;;;8.18;2.80;;;;;;;;;;5070887;28;20087;-69
2022/05/13 14:17:52;;;;;;;9.50;2.60;;;;;;;;;;5044063;28;20045;-69
2022/05/13 14:20:22;;;;;;;8.90;2.40;;;;;;;;;;5030482;28;20097;-67
2022/05/13 14:22:55;;;;;;;10.13;2.72;;;;;;;;;;5042017;28;20550;-66
2022/05/13 14:25:21;;;;;;;10.20;2.40;;;;;;;;;;5037387;28;20052;-65
2022/05/13 14:27:47;;;;;;;8.93;2.50;;;;;;;;;;5032504;28;20085;-67
2022/05/13 14:30:13;;;;;;;9.43;2.58;;;;;;;;;;5041190;28;20369;-71
2022/05/13 14:32:43;;;;;;;7.05;2.70;;;;;;;;;;5035957;28;20123;-68
2022/05/13 14:35:21;;;;;;;9.80;2.60;;;;;;;;;;5027928;28;21801;-70
2022/05/13 14:37:50;;;;;;;7.30;2.92;;;;;;;;;;5033547;28;20111;-70
2022/05/13 14:40:21;;;;;;;10.68;2.83;;;;;;;;;;5039897;28;20083;-66
2022/05/13 14:42:53;;;;;;;9.07;2.85;;;;;;;;;;5038805;28;20043;-67
2022/05/13 14:45:22;;;;;;;7.55;3.08;;;;;;;;;;5029590;28;20493;-67
2022/05/13 14:47:50;;;;;;;9.05;2.65;;;;;;;;;;5025839;28;20041;-68
2022/05/13 14:50:20;;;;;;;8.80;2.33;;;;;;;;;;5044388;28;20112;-67
2022/05/13 14:52:50;;;;;;;8.05;2.50;;;;;;;;;;5046590;28;20053;-67
2022/05/13 14:55:35;;;;;;;10.88;2.97;;;;;;;;;;5047253;28;20070;-68
2022/05/13 14:58:19;;;;;;;10.13;2.70;;;;;;;;;;5026494;28;20099;-66
2022/05/13 15:00:47;;;;;;;12.27;3.05;;;;;;;;;;5033357;28;20136;-68
2022/05/13 15:03:19;;;;;;;7.80;2.90;;;;;;;;;;5078242;28;20048;-67
2022/05/13 15:05:46;;;;;;;13.55;2.80;;;;;;;;;;5038006;28;20594;-65
2022/05/13 15:08:34;;;;;;;9.88;2.70;;;;;;;;;;5026027;28;20444;-69
2022/05/13 15:11:00;;;;;;;8.27;2.50;;;;;;;;;;5028057;28;20511;-67
2022/05/13 15:13:26;;;;;;;14.90;2.60;;;;;;;;;;5043719;28;20124;-65
2022/05/13 15:15:53;;;;;;;6.28;2.65;;;;;;;;;;5046376;28;20049;-67
2022/05/13 15:18:24;;;;;;;9.13;2.65;;;;;;;;;;5045792;28;20044;-66
2022/05/13 15:20:51;;;;;;;8.70;2.67;;;;;;;;;;5028789;28;20417;-69
2022/05/13 15:23:17;;;;;;;9.60;2.70;;;;;;;;;;5033290;28;20115;-69
2022/05/13 15:25:46;;;;;;;10.65;2.65;;;;;;;;;;5044447;28;20098;-67